sensor_id;sensor_type;location;lat;lon;timestamp;temperature;humidity
1461;DHT22;724;49.910;12.530;2022-07-29T00:01:14;15.60;1.00
1461;DHT22;724;49.910;12.530;2022-07-29T00:03:41;15.60;1.00
1461;DHT22;724;49.910;12.530;2022-07-29T00:06:08;15.60;1.00
1461;DHT22;724;49.910;12.530;2022-07-29T00:08:35;15.60;1.00
1461;DHT22;724;49.910;12.530;2022-07-29T00:11:02;15.50;1.00
1461;DHT22;724;49.910;12.530;2022-07-29T00:13:28;15.50;1.00
1461;DHT22;724;49.910;12.530;2022-07-29T00:15:57;15.50;1.00
1461;DHT22;724;49.910;12.530;2022-07-29T00:18:23;15.50;1.00
1461;DHT22;724;49.910;12.530;2022-07-29T00:20:50;15.60;1.00
1461;DHT22;724;49.910;12.530;2022-07-29T00:23:17;15.50;1.00
1461;DHT22;724;49.910;12.530;2022-07-29T00:25:43;15.60;1.00
1461;DHT22;724;49.910;12.530;2022-07-29T00:28:10;15.60;1.00
1461;DHT22;724;49.910;12.530;2022-07-29T00:30:37;15.50;1.00
1461;DHT22;724;49.910;12.530;2022-07-29T00:33:05;15.50;1.00
1461;DHT22;724;49.910;12.530;2022-07-29T00:35:31;15.50;1.00
1461;DHT22;724;49.910;12.530;2022-07-29T00:38:09;15.50;1.00
1461;DHT22;724;49.910;12.530;2022-07-29T00:40:36;15.40;1.00
1461;DHT22;724;49.910;12.530;2022-07-29T00:43:03;15.40;1.00
1461;DHT22;724;49.910;12.530;2022-07-29T00:45:30;15.50;1.00
1461;DHT22;724;49.910;12.530;2022-07-29T00:47:57;15.60;1.00
1461;DHT22;724;49.910;12.530;2022-07-29T00:50:25;15.50;1.00
1461;DHT22;724;49.910;12.530;2022-07-29T00:52:52;15.40;1.00
1461;DHT22;724;49.910;12.530;2022-07-29T00:55:19;15.20;1.00
1461;DHT22;724;49.910;12.530;2022-07-29T00:57:46;15.20;1.00
1461;DHT22;724;49.910;12.530;2022-07-29T01:00:15;15.40;1.00
1461;DHT22;724;49.910;12.530;2022-07-29T01:02:43;15.50;1.00
1461;DHT22;724;49.910;12.530;2022-07-29T01:05:11;15.50;1.00
1461;DHT22;724;49.910;12.530;2022-07-29T01:07:40;15.60;1.00
1461;DHT22;724;49.910;12.530;2022-07-29T01:10:09;15.70;1.00
1461;DHT22;724;49.910;12.530;2022-07-29T01:12:38;15.70;1.00
1461;DHT22;724;49.910;12.530;2022-07-29T01:15:07;15.90;1.00
1461;DHT22;724;49.910;12.530;2022-07-29T01:17:38;15.90;1.00
1461;DHT22;724;49.910;12.530;2022-07-29T01:20:10;15.90;1.00
1461;DHT22;724;49.910;12.530;2022-07-29T01:23:01;16.00;1.00
1461;DHT22;724;49.910;12.530;2022-07-29T01:25:48;16.00;1.00
1461;DHT22;724;49.910;12.530;2022-07-29T01:28:39;16.00;1.00
1461;DHT22;724;49.910;12.530;2022-07-29T01:31:10;16.00;1.00
1461;DHT22;724;49.910;12.530;2022-07-29T01:33:41;16.00;1.00
1461;DHT22;724;49.910;12.530;2022-07-29T01:36:18;15.80;1.00
1461;DHT22;724;49.910;12.530;2022-07-29T01:38:54;15.80;1.00
1461;DHT22;724;49.910;12.530;2022-07-29T01:41:21;15.90;1.00
1461;DHT22;724;49.910;12.530;2022-07-29T01:43:53;16.00;1.00
1461;DHT22;724;49.910;12.530;2022-07-29T01:46:25;16.10;1.00
1461;DHT22;724;49.910;12.530;2022-07-29T01:48:57;16.10;1.00
1461;DHT22;724;49.910;12.530;2022-07-29T01:51:30;16.10;1.00
1461;DHT22;724;49.910;12.530;2022-07-29T01:54:02;16.10;1.00
1461;DHT22;724;49.910;12.530;2022-07-29T01:56:31;16.10;1.00
1461;DHT22;724;49.910;12.530;2022-07-29T01:59:01;16.00;1.00
1461;DHT22;724;49.910;12.530;2022-07-29T02:01:30;16.00;1.00
1461;DHT22;724;49.910;12.530;2022-07-29T02:03:59;15.90;1.00
1461;DHT22;724;49.910;12.530;2022-07-29T02:06:27;15.80;1.00
1461;DHT22;724;49.910;12.530;2022-07-29T02:08:56;15.80;1.00
1461;DHT22;724;49.910;12.530;2022-07-29T02:11:24;15.90;1.00
1461;DHT22;724;49.910;12.530;2022-07-29T02:13:52;15.90;1.00
1461;DHT22;724;49.910;12.530;2022-07-29T02:16:22;15.70;1.00
1461;DHT22;724;49.910;12.530;2022-07-29T02:18:52;15.50;1.00
1461;DHT22;724;49.910;12.530;2022-07-29T02:21:24;15.40;1.00
1461;DHT22;724;49.910;12.530;2022-07-29T02:23:51;15.30;1.00
1461;DHT22;724;49.910;12.530;2022-07-29T02:26:20;15.20;1.00
1461;DHT22;724;49.910;12.530;2022-07-29T02:28:48;15.30;1.00
1461;DHT22;724;49.910;12.530;2022-07-29T02:31:17;15.30;1.00
1461;DHT22;724;49.910;12.530;2022-07-29T02:33:47;15.30;1.00
1461;DHT22;724;49.910;12.530;2022-07-29T02:36:16;15.20;1.00
1461;DHT22;724;49.910;12.530;2022-07-29T02:38:43;15.30;1.00
1461;DHT22;724;49.910;12.530;2022-07-29T02:41:20;15.40;1.00
1461;DHT22;724;49.910;12.530;2022-07-29T02:43:54;15.40;1.00
1461;DHT22;724;49.910;12.530;2022-07-29T02:46:27;15.40;1.00
1461;DHT22;724;49.910;12.530;2022-07-29T02:48:59;15.30;1.00
1461;DHT22;724;49.910;12.530;2022-07-29T02:51:33;15.40;1.00
1461;DHT22;724;49.910;12.530;2022-07-29T02:54:07;15.30;1.00
1461;DHT22;724;49.910;12.530;2022-07-29T02:56:35;15.30;1.00
1461;DHT22;724;49.910;12.530;2022-07-29T02:59:06;15.20;1.00
1461;DHT22;724;49.910;12.530;2022-07-29T03:01:35;14.90;1.00
1461;DHT22;724;49.910;12.530;2022-07-29T03:04:08;14.90;1.00
1461;DHT22;724;49.910;12.530;2022-07-29T03:06:35;15.10;1.00
1461;DHT22;724;49.910;12.530;2022-07-29T03:09:04;15.20;1.00
1461;DHT22;724;49.910;12.530;2022-07-29T03:11:32;15.30;1.00
1461;DHT22;724;49.910;12.530;2022-07-29T03:14:00;15.30;1.00
1461;DHT22;724;49.910;12.530;2022-07-29T03:16:27;15.30;1.00
1461;DHT22;724;49.910;12.530;2022-07-29T03:18:54;15.30;1.00
1461;DHT22;724;49.910;12.530;2022-07-29T03:21:23;15.20;1.00
1461;DHT22;724;49.910;12.530;2022-07-29T03:23:50;15.20;1.00
1461;DHT22;724;49.910;12.530;2022-07-29T03:26:16;15.30;1.00
1461;DHT22;724;49.910;12.530;2022-07-29T03:28:43;15.40;1.00
1461;DHT22;724;49.910;12.530;2022-07-29T03:31:10;15.40;1.00
1461;DHT22;724;49.910;12.530;2022-07-29T03:33:37;15.40;1.00
1461;DHT22;724;49.910;12.530;2022-07-29T03:36:04;15.30;1.00
1461;DHT22;724;49.910;12.530;2022-07-29T03:38:33;15.40;1.00
1461;DHT22;724;49.910;12.530;2022-07-29T03:41:07;15.40;1.00
1461;DHT22;724;49.910;12.530;2022-07-29T03:43:37;15.40;1.00
1461;DHT22;724;49.910;12.530;2022-07-29T03:46:06;15.40;1.00
1461;DHT22;724;49.910;12.530;2022-07-29T03:48:34;15.50;1.00
1461;DHT22;724;49.910;12.530;2022-07-29T03:51:02;15.50;1.00
1461;DHT22;724;49.910;12.530;2022-07-29T03:53:29;15.50;1.00
1461;DHT22;724;49.910;12.530;2022-07-29T03:55:59;15.50;1.00
1461;DHT22;724;49.910;12.530;2022-07-29T03:58:27;15.50;1.00
1461;DHT22;724;49.910;12.530;2022-07-29T04:00:55;15.50;1.00
1461;DHT22;724;49.910;12.530;2022-07-29T04:03:22;15.50;1.00
1461;DHT22;724;49.910;12.530;2022-07-29T04:05:58;15.50;1.00
1461;DHT22;724;49.910;12.530;2022-07-29T04:08:25;15.60;1.00
1461;DHT22;724;49.910;12.530;2022-07-29T04:10:52;15.70;1.00
1461;DHT22;724;49.910;12.530;2022-07-29T04:13:20;15.80;1.00
1461;DHT22;724;49.910;12.530;2022-07-29T04:15:47;15.90;1.00
1461;DHT22;724;49.910;12.530;2022-07-29T04:18:14;15.90;1.00
1461;DHT22;724;49.910;12.530;2022-07-29T04:20:41;16.00;1.00
1461;DHT22;724;49.910;12.530;2022-07-29T04:23:08;15.80;1.00
1461;DHT22;724;49.910;12.530;2022-07-29T04:25:37;15.90;1.00
1461;DHT22;724;49.910;12.530;2022-07-29T04:28:04;16.00;1.00
1461;DHT22;724;49.910;12.530;2022-07-29T04:30:33;15.90;1.00
1461;DHT22;724;49.910;12.530;2022-07-29T04:33:00;15.90;1.00
1461;DHT22;724;49.910;12.530;2022-07-29T04:35:27;15.90;1.00
1461;DHT22;724;49.910;12.530;2022-07-29T04:37:54;15.90;1.00
1461;DHT22;724;49.910;12.530;2022-07-29T04:40:21;16.00;1.00
1461;DHT22;724;49.910;12.530;2022-07-29T04:42:48;15.60;1.00
1461;DHT22;724;49.910;12.530;2022-07-29T04:45:14;15.50;1.00
1461;DHT22;724;49.910;12.530;2022-07-29T04:47:42;15.40;1.00
1461;DHT22;724;49.910;12.530;2022-07-29T04:50:09;15.60;1.00
1461;DHT22;724;49.910;12.530;2022-07-29T04:52:36;15.60;1.00
1461;DHT22;724;49.910;12.530;2022-07-29T04:55:04;15.80;1.00
1461;DHT22;724;49.910;12.530;2022-07-29T04:57:31;15.80;1.00
1461;DHT22;724;49.910;12.530;2022-07-29T04:59:58;16.00;1.00
1461;DHT22;724;49.910;12.530;2022-07-29T05:02:25;16.20;1.00
1461;DHT22;724;49.910;12.530;2022-07-29T05:04:53;16.30;1.00
1461;DHT22;724;49.910;12.530;2022-07-29T05:07:19;16.30;1.00
1461;DHT22;724;49.910;12.530;2022-07-29T05:09:46;16.40;1.00
1461;DHT22;724;49.910;12.530;2022-07-29T05:12:13;16.40;1.00
1461;DHT22;724;49.910;12.530;2022-07-29T05:14:39;16.40;1.00
1461;DHT22;724;49.910;12.530;2022-07-29T05:17:06;16.30;1.00
1461;DHT22;724;49.910;12.530;2022-07-29T05:19:33;16.20;1.00
1461;DHT22;724;49.910;12.530;2022-07-29T05:22:01;16.30;1.00
1461;DHT22;724;49.910;12.530;2022-07-29T05:24:28;16.50;1.00
1461;DHT22;724;49.910;12.530;2022-07-29T05:26:54;16.30;1.00
1461;DHT22;724;49.910;12.530;2022-07-29T05:29:21;16.30;1.00
1461;DHT22;724;49.910;12.530;2022-07-29T05:31:48;16.40;1.00
1461;DHT22;724;49.910;12.530;2022-07-29T05:34:16;16.60;1.00
1461;DHT22;724;49.910;12.530;2022-07-29T05:36:44;16.80;1.00
1461;DHT22;724;49.910;12.530;2022-07-29T05:39:12;16.90;1.00
1461;DHT22;724;49.910;12.530;2022-07-29T05:41:39;17.00;1.00
1461;DHT22;724;49.910;12.530;2022-07-29T05:44:05;16.90;1.00
1461;DHT22;724;49.910;12.530;2022-07-29T05:46:32;17.10;1.00
1461;DHT22;724;49.910;12.530;2022-07-29T05:48:59;17.30;1.00
1461;DHT22;724;49.910;12.530;2022-07-29T05:51:26;17.50;1.00
1461;DHT22;724;49.910;12.530;2022-07-29T05:53:53;17.40;1.00
1461;DHT22;724;49.910;12.530;2022-07-29T05:56:21;17.30;1.00
1461;DHT22;724;49.910;12.530;2022-07-29T05:58:48;17.40;1.00
1461;DHT22;724;49.910;12.530;2022-07-29T06:01:15;17.30;1.00
1461;DHT22;724;49.910;12.530;2022-07-29T06:03:42;17.30;1.00
1461;DHT22;724;49.910;12.530;2022-07-29T06:06:09;17.60;1.00
1461;DHT22;724;49.910;12.530;2022-07-29T06:08:36;17.10;1.00
1461;DHT22;724;49.910;12.530;2022-07-29T06:11:04;17.20;1.00
1461;DHT22;724;49.910;12.530;2022-07-29T06:13:32;17.10;1.00
1461;DHT22;724;49.910;12.530;2022-07-29T06:15:59;17.10;1.00
1461;DHT22;724;49.910;12.530;2022-07-29T06:18:25;17.10;1.00
1461;DHT22;724;49.910;12.530;2022-07-29T06:20:53;17.20;1.00
1461;DHT22;724;49.910;12.530;2022-07-29T06:23:20;17.20;1.00
1461;DHT22;724;49.910;12.530;2022-07-29T06:25:47;16.90;1.00
1461;DHT22;724;49.910;12.530;2022-07-29T06:28:14;17.00;1.00
1461;DHT22;724;49.910;12.530;2022-07-29T06:30:42;17.20;1.00
1461;DHT22;724;49.910;12.530;2022-07-29T06:33:09;17.20;1.00
1461;DHT22;724;49.910;12.530;2022-07-29T06:35:36;17.10;1.00
1461;DHT22;724;49.910;12.530;2022-07-29T06:38:04;17.00;1.00
1461;DHT22;724;49.910;12.530;2022-07-29T06:40:31;17.00;1.00
1461;DHT22;724;49.910;12.530;2022-07-29T06:43:15;17.10;1.00
1461;DHT22;724;49.910;12.530;2022-07-29T06:45:43;17.20;1.00
1461;DHT22;724;49.910;12.530;2022-07-29T06:48:10;17.20;1.00
1461;DHT22;724;49.910;12.530;2022-07-29T06:50:37;17.10;1.00
1461;DHT22;724;49.910;12.530;2022-07-29T06:53:03;17.10;1.00
1461;DHT22;724;49.910;12.530;2022-07-29T06:55:30;17.10;1.00
1461;DHT22;724;49.910;12.530;2022-07-29T06:57:57;17.20;1.00
1461;DHT22;724;49.910;12.530;2022-07-29T07:00:24;17.10;1.00
1461;DHT22;724;49.910;12.530;2022-07-29T07:02:52;17.30;1.00
1461;DHT22;724;49.910;12.530;2022-07-29T07:05:19;17.30;1.00
1461;DHT22;724;49.910;12.530;2022-07-29T07:07:45;17.30;1.00
1461;DHT22;724;49.910;12.530;2022-07-29T07:10:12;17.10;1.00
1461;DHT22;724;49.910;12.530;2022-07-29T07:12:39;17.20;1.00
1461;DHT22;724;49.910;12.530;2022-07-29T07:15:06;17.10;1.00
1461;DHT22;724;49.910;12.530;2022-07-29T07:17:33;17.10;1.00
1461;DHT22;724;49.910;12.530;2022-07-29T07:20:01;17.20;1.00
1461;DHT22;724;49.910;12.530;2022-07-29T07:22:28;17.20;1.00
1461;DHT22;724;49.910;12.530;2022-07-29T07:24:54;17.40;1.00
1461;DHT22;724;49.910;12.530;2022-07-29T07:27:21;17.50;1.00
1461;DHT22;724;49.910;12.530;2022-07-29T07:29:48;17.60;1.00
1461;DHT22;724;49.910;12.530;2022-07-29T07:32:15;17.60;1.00
1461;DHT22;724;49.910;12.530;2022-07-29T07:34:42;17.60;1.00
1461;DHT22;724;49.910;12.530;2022-07-29T07:37:10;17.70;1.00
1461;DHT22;724;49.910;12.530;2022-07-29T07:39:37;17.80;1.00
1461;DHT22;724;49.910;12.530;2022-07-29T07:42:04;18.00;1.00
1461;DHT22;724;49.910;12.530;2022-07-29T07:44:30;18.20;1.00
1461;DHT22;724;49.910;12.530;2022-07-29T07:46:57;18.20;1.00
1461;DHT22;724;49.910;12.530;2022-07-29T07:49:24;18.40;1.00
1461;DHT22;724;49.910;12.530;2022-07-29T07:51:51;18.60;1.00
1461;DHT22;724;49.910;12.530;2022-07-29T07:54:19;18.60;1.00
1461;DHT22;724;49.910;12.530;2022-07-29T07:56:46;18.80;1.00
1461;DHT22;724;49.910;12.530;2022-07-29T07:59:14;19.00;1.00
1461;DHT22;724;49.910;12.530;2022-07-29T08:01:41;19.20;1.00
1461;DHT22;724;49.910;12.530;2022-07-29T08:04:09;19.30;1.00
1461;DHT22;724;49.910;12.530;2022-07-29T08:06:35;19.30;1.00
1461;DHT22;724;49.910;12.530;2022-07-29T08:09:03;19.10;1.00
1461;DHT22;724;49.910;12.530;2022-07-29T08:11:32;19.10;1.00
1461;DHT22;724;49.910;12.530;2022-07-29T08:13:59;19.00;1.00
1461;DHT22;724;49.910;12.530;2022-07-29T08:16:27;19.00;1.00
1461;DHT22;724;49.910;12.530;2022-07-29T08:18:54;19.00;1.00
1461;DHT22;724;49.910;12.530;2022-07-29T08:21:23;18.90;1.00
1461;DHT22;724;49.910;12.530;2022-07-29T08:23:50;19.10;1.00
1461;DHT22;724;49.910;12.530;2022-07-29T08:26:19;19.40;1.00
1461;DHT22;724;49.910;12.530;2022-07-29T08:28:49;19.40;1.00
1461;DHT22;724;49.910;12.530;2022-07-29T08:31:16;19.60;1.00
1461;DHT22;724;49.910;12.530;2022-07-29T08:33:44;19.70;1.00
1461;DHT22;724;49.910;12.530;2022-07-29T08:36:11;20.10;1.00
1461;DHT22;724;49.910;12.530;2022-07-29T08:38:38;20.40;1.00
1461;DHT22;724;49.910;12.530;2022-07-29T08:41:05;20.70;1.00
1461;DHT22;724;49.910;12.530;2022-07-29T08:43:32;20.40;1.00
1461;DHT22;724;49.910;12.530;2022-07-29T08:46:04;20.30;1.00
1461;DHT22;724;49.910;12.530;2022-07-29T08:48:31;20.40;1.00
1461;DHT22;724;49.910;12.530;2022-07-29T08:51:00;20.20;1.00
1461;DHT22;724;49.910;12.530;2022-07-29T08:53:28;20.00;1.00
1461;DHT22;724;49.910;12.530;2022-07-29T08:55:56;20.00;1.00
1461;DHT22;724;49.910;12.530;2022-07-29T08:58:24;20.00;1.00
1461;DHT22;724;49.910;12.530;2022-07-29T09:00:53;20.20;1.00
1461;DHT22;724;49.910;12.530;2022-07-29T09:03:24;20.30;1.00
1461;DHT22;724;49.910;12.530;2022-07-29T09:05:51;20.30;1.00
1461;DHT22;724;49.910;12.530;2022-07-29T09:08:19;20.50;1.00
1461;DHT22;724;49.910;12.530;2022-07-29T09:10:46;20.50;1.00
1461;DHT22;724;49.910;12.530;2022-07-29T09:13:13;20.80;1.00
1461;DHT22;724;49.910;12.530;2022-07-29T09:15:40;20.70;1.00
1461;DHT22;724;49.910;12.530;2022-07-29T09:18:07;21.20;1.00
1461;DHT22;724;49.910;12.530;2022-07-29T09:20:35;21.40;1.00
1461;DHT22;724;49.910;12.530;2022-07-29T09:23:28;21.30;1.00
1461;DHT22;724;49.910;12.530;2022-07-29T09:25:55;20.60;1.00
1461;DHT22;724;49.910;12.530;2022-07-29T09:28:22;21.00;1.00
1461;DHT22;724;49.910;12.530;2022-07-29T09:30:53;21.10;1.00
1461;DHT22;724;49.910;12.530;2022-07-29T09:33:21;21.40;1.00
1461;DHT22;724;49.910;12.530;2022-07-29T09:36:01;22.10;1.00
1461;DHT22;724;49.910;12.530;2022-07-29T09:38:29;22.70;1.00
1461;DHT22;724;49.910;12.530;2022-07-29T09:40:56;23.10;1.00
1461;DHT22;724;49.910;12.530;2022-07-29T09:43:23;23.60;1.00
1461;DHT22;724;49.910;12.530;2022-07-29T09:45:51;24.50;1.00
1461;DHT22;724;49.910;12.530;2022-07-29T09:48:20;25.60;1.00
1461;DHT22;724;49.910;12.530;2022-07-29T09:50:49;25.50;1.00
1461;DHT22;724;49.910;12.530;2022-07-29T09:53:35;25.00;1.00
1461;DHT22;724;49.910;12.530;2022-07-29T09:56:05;25.10;1.00
1461;DHT22;724;49.910;12.530;2022-07-29T09:58:37;23.30;1.00
1461;DHT22;724;49.910;12.530;2022-07-29T10:01:10;22.70;1.00
1461;DHT22;724;49.910;12.530;2022-07-29T10:03:54;22.60;1.00
1461;DHT22;724;49.910;12.530;2022-07-29T10:06:22;23.40;1.00
1461;DHT22;724;49.910;12.530;2022-07-29T10:08:50;23.60;1.00
1461;DHT22;724;49.910;12.530;2022-07-29T10:11:18;24.30;1.00
1461;DHT22;724;49.910;12.530;2022-07-29T10:13:47;24.40;1.00
1461;DHT22;724;49.910;12.530;2022-07-29T10:16:16;23.80;1.00
1461;DHT22;724;49.910;12.530;2022-07-29T10:18:44;24.50;1.00
1461;DHT22;724;49.910;12.530;2022-07-29T10:21:12;24.80;1.00
1461;DHT22;724;49.910;12.530;2022-07-29T10:23:40;24.20;1.00
1461;DHT22;724;49.910;12.530;2022-07-29T10:26:10;23.10;1.00
1461;DHT22;724;49.910;12.530;2022-07-29T10:28:37;23.80;1.00
1461;DHT22;724;49.910;12.530;2022-07-29T10:31:06;25.30;1.00
1461;DHT22;724;49.910;12.530;2022-07-29T10:33:47;24.30;1.00
1461;DHT22;724;49.910;12.530;2022-07-29T10:36:35;23.80;1.00
1461;DHT22;724;49.910;12.530;2022-07-29T10:39:13;23.00;1.00
1461;DHT22;724;49.910;12.530;2022-07-29T10:41:56;23.90;1.00
1461;DHT22;724;49.910;12.530;2022-07-29T10:44:26;24.30;1.00
1461;DHT22;724;49.910;12.530;2022-07-29T10:46:54;23.30;1.00
1461;DHT22;724;49.910;12.530;2022-07-29T10:49:23;24.30;1.00
1461;DHT22;724;49.910;12.530;2022-07-29T10:52:00;24.90;1.00
1461;DHT22;724;49.910;12.530;2022-07-29T10:54:51;24.80;1.00
1461;DHT22;724;49.910;12.530;2022-07-29T10:57:30;25.20;1.00
1461;DHT22;724;49.910;12.530;2022-07-29T11:00:31;24.40;1.00
1461;DHT22;724;49.910;12.530;2022-07-29T11:02:59;24.80;1.00
1461;DHT22;724;49.910;12.530;2022-07-29T11:05:26;24.80;1.00
1461;DHT22;724;49.910;12.530;2022-07-29T11:08:18;25.70;1.00
1461;DHT22;724;49.910;12.530;2022-07-29T11:10:47;25.30;1.00
1461;DHT22;724;49.910;12.530;2022-07-29T11:16:13;26.20;1.00
1461;DHT22;724;49.910;12.530;2022-07-29T11:21:42;25.70;1.00
1461;DHT22;724;49.910;12.530;2022-07-29T11:24:12;24.90;1.00
1461;DHT22;724;49.910;12.530;2022-07-29T11:26:40;24.70;1.00
1461;DHT22;724;49.910;12.530;2022-07-29T11:29:17;24.40;1.00
1461;DHT22;724;49.910;12.530;2022-07-29T11:31:48;23.90;1.00
1461;DHT22;724;49.910;12.530;2022-07-29T11:34:22;23.70;1.00
1461;DHT22;724;49.910;12.530;2022-07-29T11:37:14;24.20;1.00
1461;DHT22;724;49.910;12.530;2022-07-29T11:39:42;24.70;1.00
1461;DHT22;724;49.910;12.530;2022-07-29T11:42:41;24.90;1.00
1461;DHT22;724;49.910;12.530;2022-07-29T11:45:09;25.40;1.00
1461;DHT22;724;49.910;12.530;2022-07-29T11:47:40;25.30;1.00
1461;DHT22;724;49.910;12.530;2022-07-29T11:50:11;25.10;1.00
1461;DHT22;724;49.910;12.530;2022-07-29T11:52:39;25.40;1.00
1461;DHT22;724;49.910;12.530;2022-07-29T11:55:11;25.60;1.00
1461;DHT22;724;49.910;12.530;2022-07-29T11:57:46;25.90;1.00
1461;DHT22;724;49.910;12.530;2022-07-29T12:00:21;25.20;1.00
1461;DHT22;724;49.910;12.530;2022-07-29T12:02:50;26.20;1.00
1461;DHT22;724;49.910;12.530;2022-07-29T12:05:17;26.50;1.00
1461;DHT22;724;49.910;12.530;2022-07-29T12:07:44;26.60;1.00
1461;DHT22;724;49.910;12.530;2022-07-29T12:10:11;25.10;1.00
1461;DHT22;724;49.910;12.530;2022-07-29T12:12:38;24.40;1.00
1461;DHT22;724;49.910;12.530;2022-07-29T12:15:14;24.80;1.00
1461;DHT22;724;49.910;12.530;2022-07-29T12:17:41;24.90;1.00
1461;DHT22;724;49.910;12.530;2022-07-29T12:20:10;25.70;1.00
1461;DHT22;724;49.910;12.530;2022-07-29T12:22:39;25.00;1.00
1461;DHT22;724;49.910;12.530;2022-07-29T12:25:09;24.10;1.00
1461;DHT22;724;49.910;12.530;2022-07-29T12:27:37;24.40;1.00
1461;DHT22;724;49.910;12.530;2022-07-29T12:30:06;25.20;1.00
1461;DHT22;724;49.910;12.530;2022-07-29T12:32:35;24.20;1.00
1461;DHT22;724;49.910;12.530;2022-07-29T12:35:04;24.10;1.00
1461;DHT22;724;49.910;12.530;2022-07-29T12:37:33;24.80;1.00
1461;DHT22;724;49.910;12.530;2022-07-29T12:40:01;25.70;1.00
1461;DHT22;724;49.910;12.530;2022-07-29T12:42:28;25.70;1.00
1461;DHT22;724;49.910;12.530;2022-07-29T12:44:55;24.20;1.00
1461;DHT22;724;49.910;12.530;2022-07-29T12:47:22;25.30;1.00
1461;DHT22;724;49.910;12.530;2022-07-29T12:49:50;25.40;1.00
1461;DHT22;724;49.910;12.530;2022-07-29T12:52:27;25.40;1.00
1461;DHT22;724;49.910;12.530;2022-07-29T12:54:56;25.40;1.00
1461;DHT22;724;49.910;12.530;2022-07-29T12:57:23;26.00;1.00
1461;DHT22;724;49.910;12.530;2022-07-29T13:00:00;25.50;1.00
1461;DHT22;724;49.910;12.530;2022-07-29T13:02:28;26.10;1.00
1461;DHT22;724;49.910;12.530;2022-07-29T13:04:55;26.20;1.00
1461;DHT22;724;49.910;12.530;2022-07-29T13:07:24;26.00;1.00
1461;DHT22;724;49.910;12.530;2022-07-29T13:09:52;26.10;1.00
1461;DHT22;724;49.910;12.530;2022-07-29T13:12:21;26.00;1.00
1461;DHT22;724;49.910;12.530;2022-07-29T13:14:48;26.30;1.00
1461;DHT22;724;49.910;12.530;2022-07-29T13:17:18;26.60;1.00
1461;DHT22;724;49.910;12.530;2022-07-29T13:19:47;26.10;1.00
1461;DHT22;724;49.910;12.530;2022-07-29T13:22:16;26.30;1.00
1461;DHT22;724;49.910;12.530;2022-07-29T13:24:48;26.20;1.00
1461;DHT22;724;49.910;12.530;2022-07-29T13:27:15;26.40;1.00
1461;DHT22;724;49.910;12.530;2022-07-29T13:29:44;26.30;1.00
1461;DHT22;724;49.910;12.530;2022-07-29T13:32:11;25.90;1.00
1461;DHT22;724;49.910;12.530;2022-07-29T13:34:38;25.10;1.00
1461;DHT22;724;49.910;12.530;2022-07-29T13:37:06;25.50;1.00
1461;DHT22;724;49.910;12.530;2022-07-29T13:39:32;25.70;1.00
1461;DHT22;724;49.910;12.530;2022-07-29T13:41:59;26.10;1.00
1461;DHT22;724;49.910;12.530;2022-07-29T13:44:29;25.80;1.00
1461;DHT22;724;49.910;12.530;2022-07-29T13:46:57;25.40;1.00
1461;DHT22;724;49.910;12.530;2022-07-29T13:49:25;25.30;1.00
1461;DHT22;724;49.910;12.530;2022-07-29T13:51:52;25.10;1.00
1461;DHT22;724;49.910;12.530;2022-07-29T13:54:19;25.00;1.00
1461;DHT22;724;49.910;12.530;2022-07-29T13:56:46;24.70;1.00
1461;DHT22;724;49.910;12.530;2022-07-29T13:59:13;24.80;1.00
1461;DHT22;724;49.910;12.530;2022-07-29T14:01:39;25.50;1.00
1461;DHT22;724;49.910;12.530;2022-07-29T14:04:08;25.90;1.00
1461;DHT22;724;49.910;12.530;2022-07-29T14:06:35;26.30;1.00
1461;DHT22;724;49.910;12.530;2022-07-29T14:09:03;26.40;1.00
1461;DHT22;724;49.910;12.530;2022-07-29T14:11:31;25.70;1.00
1461;DHT22;724;49.910;12.530;2022-07-29T14:13:58;25.90;1.00
1461;DHT22;724;49.910;12.530;2022-07-29T14:16:24;25.50;1.00
1461;DHT22;724;49.910;12.530;2022-07-29T14:18:51;25.70;1.00
1461;DHT22;724;49.910;12.530;2022-07-29T14:21:19;25.40;1.00
1461;DHT22;724;49.910;12.530;2022-07-29T14:23:46;24.50;1.00
1461;DHT22;724;49.910;12.530;2022-07-29T14:26:13;24.60;1.00
1461;DHT22;724;49.910;12.530;2022-07-29T14:28:39;24.60;1.00
1461;DHT22;724;49.910;12.530;2022-07-29T14:31:07;24.90;1.00
1461;DHT22;724;49.910;12.530;2022-07-29T14:33:33;25.00;1.00
1461;DHT22;724;49.910;12.530;2022-07-29T14:36:00;25.10;1.00
1461;DHT22;724;49.910;12.530;2022-07-29T14:38:28;24.70;1.00
1461;DHT22;724;49.910;12.530;2022-07-29T14:40:55;24.80;1.00
1461;DHT22;724;49.910;12.530;2022-07-29T14:43:22;25.00;1.00
1461;DHT22;724;49.910;12.530;2022-07-29T14:45:48;25.00;1.00
1461;DHT22;724;49.910;12.530;2022-07-29T14:48:15;24.80;1.00
1461;DHT22;724;49.910;12.530;2022-07-29T14:50:42;24.80;1.00
1461;DHT22;724;49.910;12.530;2022-07-29T14:53:09;25.20;1.00
1461;DHT22;724;49.910;12.530;2022-07-29T14:55:38;25.40;1.00
1461;DHT22;724;49.910;12.530;2022-07-29T14:58:05;25.40;1.00
1461;DHT22;724;49.910;12.530;2022-07-29T15:00:32;25.20;1.00
1461;DHT22;724;49.910;12.530;2022-07-29T15:02:59;25.10;1.00
1461;DHT22;724;49.910;12.530;2022-07-29T15:05:26;25.00;1.00
1461;DHT22;724;49.910;12.530;2022-07-29T15:07:53;25.00;1.00
1461;DHT22;724;49.910;12.530;2022-07-29T15:10:20;24.40;1.00
1461;DHT22;724;49.910;12.530;2022-07-29T15:12:48;23.70;1.00
1461;DHT22;724;49.910;12.530;2022-07-29T15:15:15;23.20;1.00
1461;DHT22;724;49.910;12.530;2022-07-29T15:17:42;22.90;1.00
1461;DHT22;724;49.910;12.530;2022-07-29T15:20:09;22.40;1.00
1461;DHT22;724;49.910;12.530;2022-07-29T15:22:37;22.10;1.00
1461;DHT22;724;49.910;12.530;2022-07-29T15:25:05;22.00;1.00
1461;DHT22;724;49.910;12.530;2022-07-29T15:27:32;21.80;1.00
1461;DHT22;724;49.910;12.530;2022-07-29T15:30:00;21.70;1.00
1461;DHT22;724;49.910;12.530;2022-07-29T15:32:27;21.50;1.00
1461;DHT22;724;49.910;12.530;2022-07-29T15:34:53;21.20;1.00
1461;DHT22;724;49.910;12.530;2022-07-29T15:37:20;20.90;1.00
1461;DHT22;724;49.910;12.530;2022-07-29T15:39:47;20.60;1.00
1461;DHT22;724;49.910;12.530;2022-07-29T15:42:14;20.20;1.00
1461;DHT22;724;49.910;12.530;2022-07-29T15:44:42;19.90;1.00
1461;DHT22;724;49.910;12.530;2022-07-29T15:47:10;19.70;1.00
1461;DHT22;724;49.910;12.530;2022-07-29T15:49:38;19.80;1.00
1461;DHT22;724;49.910;12.530;2022-07-29T15:52:07;19.50;1.00
1461;DHT22;724;49.910;12.530;2022-07-29T15:54:34;19.20;1.00
1461;DHT22;724;49.910;12.530;2022-07-29T15:57:01;19.20;1.00
1461;DHT22;724;49.910;12.530;2022-07-29T15:59:28;19.10;1.00
1461;DHT22;724;49.910;12.530;2022-07-29T16:01:55;19.00;1.00
1461;DHT22;724;49.910;12.530;2022-07-29T16:04:23;18.90;1.00
1461;DHT22;724;49.910;12.530;2022-07-29T16:06:51;18.70;1.00
1461;DHT22;724;49.910;12.530;2022-07-29T16:09:18;18.30;1.00
1461;DHT22;724;49.910;12.530;2022-07-29T16:11:45;18.10;1.00
1461;DHT22;724;49.910;12.530;2022-07-29T16:14:15;18.30;1.00
1461;DHT22;724;49.910;12.530;2022-07-29T16:16:42;18.30;1.00
1461;DHT22;724;49.910;12.530;2022-07-29T16:19:12;17.90;1.00
1461;DHT22;724;49.910;12.530;2022-07-29T16:21:40;17.60;1.00
1461;DHT22;724;49.910;12.530;2022-07-29T16:24:07;17.60;1.00
1461;DHT22;724;49.910;12.530;2022-07-29T16:26:35;17.80;1.00
1461;DHT22;724;49.910;12.530;2022-07-29T16:29:02;17.70;35.50
1461;DHT22;724;49.910;12.530;2022-07-29T16:31:29;17.50;69.70
1461;DHT22;724;49.910;12.530;2022-07-29T16:33:56;17.70;89.30